createdAt,value
2023-04-15T00:01:04.266Z,99535.63
2023-04-15T00:04:07.199Z,99532.81
2023-04-15T00:07:10.514Z,99539.69
2023-04-15T00:10:14.501Z,99535.19
2023-04-15T00:13:17.279Z,99533.44
2023-04-15T00:16:20.154Z,99537.41
2023-04-15T00:19:23.497Z,99533.19
2023-04-15T00:22:27.683Z,99539.03
2023-04-15T00:25:30.772Z,99544.34
2023-04-15T00:28:33.653Z,99542.50
2023-04-15T00:31:36.944Z,99541.84
2023-04-15T00:34:39.655Z,99535.22
2023-04-15T00:37:45.922Z,99539.91
2023-04-15T00:40:49.040Z,99540.94
2023-04-15T00:43:53.069Z,99527.41
2023-04-15T00:46:56.180Z,99531.09
2023-04-15T00:49:59.444Z,99528.97
2023-04-15T00:53:01.958Z,99527.94
2023-04-15T00:56:05.335Z,99527.31
2023-04-15T00:59:09.117Z,99527.28
2023-04-15T01:02:12.325Z,99523.88
2023-04-15T01:05:17.657Z,99524.97
2023-04-15T01:08:20.610Z,99523.94
2023-04-15T01:11:24.191Z,99527.09
2023-04-15T01:14:27.392Z,99521.66
2023-04-15T01:17:30.500Z,99521.47
2023-04-15T01:20:34.989Z,99520.69
2023-04-15T01:23:38.945Z,99526.31
2023-04-15T01:26:44.515Z,99535.25
2023-04-15T01:29:47.325Z,99547.09
2023-04-15T01:32:50.740Z,99544.91
2023-04-15T01:35:55.106Z,99549.03
2023-04-15T01:39:01.524Z,99549.53
2023-04-15T01:42:04.962Z,99542.00
2023-04-15T01:45:09.592Z,99536.59
2023-04-15T01:48:13.809Z,99541.22
2023-04-15T01:51:17.074Z,99538.16
2023-04-15T01:54:19.864Z,99528.00
2023-04-15T01:57:22.714Z,99526.09
2023-04-15T02:00:25.601Z,99525.41
2023-04-15T02:03:29.997Z,99536.53
2023-04-15T02:06:33.490Z,99528.00
2023-04-15T02:09:36.216Z,99526.91
2023-04-15T02:12:39.257Z,99524.75
2023-04-15T02:15:47.405Z,99526.13
2023-04-15T02:18:52.047Z,99533.72
2023-04-15T02:21:55.320Z,99526.69
2023-04-15T02:24:58.409Z,99529.44
2023-04-15T02:28:01.394Z,99530.19
2023-04-15T02:31:08.196Z,99532.16
2023-04-15T02:34:11.392Z,99528.38
2023-04-15T02:37:14.762Z,99537.25
2023-04-15T02:40:17.985Z,99537.06
2023-04-15T02:43:21.897Z,99538.66
2023-04-15T02:46:26.200Z,99546.84
2023-04-15T02:49:31.060Z,99534.94
2023-04-15T02:52:33.858Z,99530.03
2023-04-15T02:55:36.574Z,99527.59
2023-04-15T02:58:41.073Z,99526.47
2023-04-15T03:01:43.996Z,99534.97
2023-04-15T03:04:46.841Z,99527.59
2023-04-15T03:07:49.562Z,99528.34
2023-04-15T03:10:53.890Z,99526.03
2023-04-15T03:13:58.634Z,99524.38
2023-04-15T03:17:07.092Z,99516.88
2023-04-15T03:20:10.424Z,99534.84
2023-04-15T03:23:14.021Z,99533.22
2023-04-15T03:26:30.521Z,99529.84
2023-04-15T03:29:46.712Z,99531.47
2023-04-15T03:32:53.349Z,99545.59
2023-04-15T03:35:56.446Z,99548.25
2023-04-15T03:38:59.914Z,99550.75
2023-04-15T03:42:03.751Z,99547.63
2023-04-15T03:45:07.679Z,99545.00
2023-04-15T03:48:16.662Z,99548.53
2023-04-15T03:51:20.124Z,99556.47
2023-04-15T03:54:23.143Z,99560.25
2023-04-15T03:57:25.599Z,99563.59
2023-04-15T04:00:29.105Z,99552.63
2023-04-15T04:03:32.053Z,99558.19
2023-04-15T04:06:34.706Z,99563.53
2023-04-15T04:09:39.228Z,99567.94
2023-04-15T04:12:41.981Z,99566.16
2023-04-15T04:15:44.693Z,99570.56
2023-04-15T04:18:47.452Z,99564.44
2023-04-15T04:21:50.395Z,99572.03
2023-04-15T04:24:53.242Z,99567.47
2023-04-15T04:27:56.105Z,99578.56
2023-04-15T04:30:59.467Z,99580.03
2023-04-15T04:34:02.404Z,99574.69
2023-04-15T04:37:05.416Z,99577.75
2023-04-15T04:40:09.199Z,99574.63
2023-04-15T04:43:12.173Z,99578.88
2023-04-15T04:46:15.051Z,99579.97
2023-04-15T04:49:17.961Z,99581.38
2023-04-15T04:52:20.812Z,99581.84
2023-04-15T04:55:23.637Z,99583.19
2023-04-15T04:58:26.420Z,99582.56
2023-04-15T05:01:29.538Z,99582.78
2023-04-15T05:04:32.102Z,99581.78
2023-04-15T05:07:35.045Z,99580.31
2023-04-15T05:10:37.808Z,99587.06
2023-04-15T05:13:40.497Z,99584.41
2023-04-15T05:16:43.136Z,99592.56
2023-04-15T05:19:45.866Z,99589.69
2023-04-15T05:22:48.549Z,99592.19
2023-04-15T05:25:51.274Z,99590.03
2023-04-15T05:28:54.433Z,99587.38
2023-04-15T05:31:57.506Z,99590.81
2023-04-15T05:35:00.172Z,99592.91
2023-04-15T05:38:02.841Z,99600.69
2023-04-15T05:41:05.758Z,99590.06
2023-04-15T05:44:08.910Z,99596.47
2023-04-15T05:47:11.762Z,99598.34
2023-04-15T05:50:14.555Z,99603.19
2023-04-15T05:53:17.277Z,99597.59
2023-04-15T05:56:20.868Z,99599.78
2023-04-15T05:59:23.372Z,99599.16
2023-04-15T06:02:26.862Z,99602.28
2023-04-15T06:05:29.324Z,99604.91
2023-04-15T06:08:32.046Z,99604.44
2023-04-15T06:11:34.910Z,99615.25
2023-04-15T06:14:38.670Z,99619.94
2023-04-15T06:17:41.327Z,99615.69
2023-04-15T06:20:44.150Z,99617.25
2023-04-15T06:23:46.852Z,99617.03
2023-04-15T06:26:49.731Z,99623.75
2023-04-15T06:29:52.764Z,99625.09
2023-04-15T06:32:56.096Z,99621.03
2023-04-15T06:35:59.051Z,99625.44
2023-04-15T06:39:02.461Z,99628.69
2023-04-15T06:42:05.341Z,99630.88
2023-04-15T06:45:08.952Z,99632.06
2023-04-15T06:48:12.147Z,99643.09
2023-04-15T06:51:14.817Z,99643.84
2023-04-15T06:54:17.519Z,99634.06
2023-04-15T06:57:20.168Z,99637.41
2023-04-15T07:00:22.865Z,99643.00
2023-04-15T07:03:26.384Z,99649.31
2023-04-15T07:06:28.911Z,99653.88
2023-04-15T07:09:32.905Z,99654.44
2023-04-15T07:12:35.980Z,99642.75
2023-04-15T07:15:38.748Z,99651.31
2023-04-15T07:18:41.422Z,99654.38
2023-04-15T07:21:44.255Z,99670.78
2023-04-15T07:24:47.193Z,99666.63
2023-04-15T07:27:49.975Z,99658.03
2023-04-15T07:30:53.136Z,99668.53
2023-04-15T07:33:55.964Z,99668.09
2023-04-15T07:36:58.529Z,99665.84
2023-04-15T07:40:01.788Z,99667.75
2023-04-15T07:43:04.678Z,99679.28
2023-04-15T07:46:07.542Z,99668.59
2023-04-15T07:49:10.407Z,99666.50
2023-04-15T07:52:13.031Z,99675.59
2023-04-15T07:55:19.324Z,99674.53
2023-04-15T07:58:22.121Z,99683.22
2023-04-15T08:01:24.574Z,99680.00
2023-04-15T08:04:27.763Z,99679.88
2023-04-15T08:07:31.230Z,99682.19
2023-04-15T08:10:34.489Z,99687.72
2023-04-15T08:13:37.254Z,99685.97
2023-04-15T08:16:40.100Z,99685.72
2023-04-15T08:19:43.788Z,99685.03
2023-04-15T08:22:48.263Z,99682.78
2023-04-15T08:25:51.335Z,99686.03
2023-04-15T08:28:54.870Z,99689.94
2023-04-15T08:31:59.498Z,99690.22
2023-04-15T08:35:02.401Z,99697.28
2023-04-15T08:38:04.818Z,99680.34
2023-04-15T08:41:13.324Z,99688.81
2023-04-15T08:44:16.347Z,99692.75
2023-04-15T08:47:21.828Z,99695.22
2023-04-15T08:50:25.384Z,99687.63
2023-04-15T08:53:30.367Z,99682.84
2023-04-15T08:56:33.466Z,99679.94
2023-04-15T08:59:36.728Z,99683.88
2023-04-15T09:02:41.312Z,99688.38
2023-04-15T09:05:44.628Z,99677.63
2023-04-15T09:08:47.681Z,99682.97
2023-04-15T09:11:51.732Z,99678.38
2023-04-15T09:14:54.946Z,99684.34
2023-04-15T09:17:57.602Z,99681.72
2023-04-15T09:21:09.089Z,99682.59
2023-04-15T09:24:12.100Z,99674.19
2023-04-15T09:27:17.680Z,99680.13
2023-04-15T09:30:20.913Z,99670.38
2023-04-15T09:33:24.646Z,99670.56
2023-04-15T09:36:30.183Z,99670.72
2023-04-15T09:39:52.508Z,99665.63
2023-04-15T09:42:56.585Z,99666.63
2023-04-15T09:45:59.363Z,99668.94
2023-04-15T09:49:09.352Z,99658.47
2023-04-15T09:52:14.367Z,99658.34
2023-04-15T09:55:18.597Z,99653.19
2023-04-15T09:58:23.555Z,99648.16
2023-04-15T10:01:27.398Z,99641.59
2023-04-15T10:04:31.165Z,99644.25
2023-04-15T10:07:34.513Z,99640.06
2023-04-15T10:10:37.461Z,99644.63
2023-04-15T10:13:41.816Z,99637.94
2023-04-15T10:16:49.071Z,99628.84
2023-04-15T10:19:54.696Z,99618.56
2023-04-15T10:22:57.902Z,99606.22
2023-04-15T10:26:01.542Z,99615.88
2023-04-15T10:29:05.188Z,99613.94
2023-04-15T10:32:08.502Z,99613.00
2023-04-15T10:35:11.967Z,99610.88
2023-04-15T10:38:45.878Z,99619.56
2023-04-15T10:42:08.901Z,99615.59
2023-04-15T10:45:18.217Z,99612.72
2023-04-15T10:48:21.101Z,99609.19
2023-04-15T10:51:29.098Z,99604.72
2023-04-15T10:54:33.645Z,99609.75
2023-04-15T10:57:39.843Z,99607.19
2023-04-15T11:00:52.367Z,99619.25
2023-04-15T11:04:02.203Z,99624.63
2023-04-15T11:07:38.836Z,99637.47
2023-04-15T11:10:41.666Z,99640.84
2023-04-15T11:13:52.553Z,99657.69
2023-04-15T11:16:56.344Z,99669.59
2023-04-15T11:19:58.917Z,99670.56
2023-04-15T11:23:14.763Z,99678.88
2023-04-15T11:26:18.196Z,99678.47
2023-04-15T11:29:21.597Z,99683.03
2023-04-15T11:32:24.209Z,99685.28
2023-04-15T11:35:27.598Z,99685.94
2023-04-15T11:38:31.528Z,99684.97
2023-04-15T11:41:36.066Z,99691.59
2023-04-15T11:44:38.825Z,99703.00
2023-04-15T11:47:43.000Z,99698.88
2023-04-15T11:50:46.050Z,99703.47
2023-04-15T11:53:50.895Z,99705.03
2023-04-15T11:56:54.638Z,99703.63
2023-04-15T11:59:57.741Z,99693.91
2023-04-15T12:03:24.907Z,99700.72
2023-04-15T12:06:35.247Z,99706.84
2023-04-15T12:09:38.377Z,99712.22
2023-04-15T12:12:41.213Z,99716.75
2023-04-15T12:15:44.817Z,99711.09
2023-04-15T12:18:50.922Z,99703.13
2023-04-15T12:22:00.355Z,99703.47
2023-04-15T12:25:04.163Z,99709.16
2023-04-15T12:28:12.976Z,99699.16
2023-04-15T12:31:16.173Z,99694.88
2023-04-15T12:34:32.076Z,99697.25
2023-04-15T12:37:35.208Z,99688.91
2023-04-15T12:40:37.817Z,99694.44
2023-04-15T12:43:40.826Z,99689.31
2023-04-15T12:46:43.886Z,99691.38
2023-04-15T12:49:47.512Z,99693.84
2023-04-15T12:52:50.371Z,99707.16
2023-04-15T12:55:53.501Z,99712.16
2023-04-15T12:58:56.378Z,99722.84
2023-04-15T13:02:00.980Z,99728.56
2023-04-15T13:05:04.072Z,99736.00
2023-04-15T13:08:07.114Z,99742.94
2023-04-15T13:11:09.673Z,99753.69
2023-04-15T13:14:13.238Z,99757.28
2023-04-15T13:17:18.982Z,99754.00
2023-04-15T13:20:22.345Z,99751.41
2023-04-15T13:23:24.916Z,99732.66
2023-04-15T13:26:28.473Z,99714.19
2023-04-15T13:29:30.855Z,99724.16
2023-04-15T13:32:33.720Z,99729.50
2023-04-15T13:35:37.144Z,99738.59
2023-04-15T13:38:40.155Z,99742.97
2023-04-15T13:41:43.122Z,99750.69
2023-04-15T13:44:46.216Z,99746.84
2023-04-15T13:47:48.837Z,99756.69
2023-04-15T13:50:51.720Z,99758.34
2023-04-15T13:53:54.248Z,99751.59
2023-04-15T13:56:58.203Z,99761.34
2023-04-15T14:00:00.828Z,99751.84
2023-04-15T14:03:03.970Z,99755.06
2023-04-15T14:06:06.888Z,99753.94
2023-04-15T14:09:10.697Z,99764.97
2023-04-15T14:12:13.953Z,99770.25
2023-04-15T14:15:16.855Z,99773.16
2023-04-15T14:18:19.590Z,99773.38
2023-04-15T14:21:22.658Z,99790.03
2023-04-15T14:24:25.243Z,99791.34
2023-04-15T14:27:29.300Z,99813.88
2023-04-15T14:30:31.733Z,99809.03
2023-04-15T14:33:34.646Z,99822.16
2023-04-15T14:36:37.336Z,99811.13
2023-04-15T14:39:41.180Z,99813.34
2023-04-15T14:42:43.929Z,99817.53
2023-04-15T14:45:47.308Z,99811.78
2023-04-15T14:48:50.049Z,99804.09
2023-04-15T14:51:53.502Z,99817.16
2023-04-15T14:54:56.904Z,99807.50
2023-04-15T14:57:59.644Z,99814.75
2023-04-15T15:01:03.320Z,99820.03
2023-04-15T15:04:06.530Z,99816.53
2023-04-15T15:07:09.398Z,99816.69
2023-04-15T15:10:12.113Z,99815.19
2023-04-15T15:13:15.820Z,99821.19
2023-04-15T15:16:18.894Z,99809.63
2023-04-15T15:19:21.985Z,99817.06
2023-04-15T15:22:26.363Z,99825.31
2023-04-15T15:25:28.795Z,99813.41
2023-04-15T15:28:31.761Z,99818.44
2023-04-15T15:31:37.308Z,99820.53
2023-04-15T15:34:40.141Z,99823.91
2023-04-15T15:37:43.485Z,99824.78
2023-04-15T15:40:46.941Z,99823.56
2023-04-15T15:43:49.805Z,99839.94
2023-04-15T15:46:52.582Z,99827.81
2023-04-15T15:49:55.569Z,99833.13
2023-04-15T15:52:59.000Z,99832.47
2023-04-15T15:56:03.730Z,99840.03
2023-04-15T15:59:07.020Z,99841.03
2023-04-15T16:02:16.861Z,99846.13
2023-04-15T16:05:20.078Z,99841.72
2023-04-15T16:08:22.749Z,99839.56
2023-04-15T16:11:25.562Z,99847.72
2023-04-15T16:14:28.293Z,99849.38
2023-04-15T16:17:31.424Z,99850.53
2023-04-15T16:20:34.402Z,99858.81
2023-04-15T16:23:37.485Z,99855.03
2023-04-15T16:26:41.241Z,99858.91
2023-04-15T16:29:44.134Z,99873.25
2023-04-15T16:32:46.757Z,99866.06
2023-04-15T16:35:51.215Z,99871.16
2023-04-15T16:38:54.130Z,99871.22
2023-04-15T16:41:57.860Z,99872.81
2023-04-15T16:45:00.680Z,99879.69
2023-04-15T16:48:03.756Z,99873.41
2023-04-15T16:51:06.708Z,99876.09
2023-04-15T16:54:10.298Z,99873.91
2023-04-15T16:57:13.195Z,99874.84
2023-04-15T17:00:16.322Z,99877.31
2023-04-15T17:03:19.176Z,99885.75
2023-04-15T17:06:22.453Z,99893.78
2023-04-15T17:09:25.198Z,99889.47
2023-04-15T17:12:27.884Z,99888.72
2023-04-15T17:15:30.743Z,99892.78
2023-04-15T17:18:33.561Z,99889.66
2023-04-15T17:21:36.201Z,99895.59
2023-04-15T17:24:38.846Z,99902.97
2023-04-15T17:27:41.724Z,99908.78
2023-04-15T17:30:44.486Z,99910.31
2023-04-15T17:33:56.100Z,99918.00
2023-04-15T17:37:09.018Z,99913.47
2023-04-15T17:40:12.369Z,99927.53
2023-04-15T17:43:15.759Z,99925.81
2023-04-15T17:46:19.421Z,99932.38
2023-04-15T17:49:22.648Z,99931.41
2023-04-15T17:52:25.144Z,99937.66
2023-04-15T17:55:27.708Z,99935.28
2023-04-15T17:58:31.319Z,99942.47
2023-04-15T18:01:33.901Z,99947.19
2023-04-15T18:04:36.918Z,99952.41
2023-04-15T18:07:40.273Z,99962.34
2023-04-15T18:10:43.200Z,99959.50
2023-04-15T18:13:46.268Z,99965.59
2023-04-15T18:16:49.498Z,99976.69
2023-04-15T18:19:52.656Z,99988.19
2023-04-15T18:22:55.804Z,99992.72
2023-04-15T18:25:59.052Z,99986.31
2023-04-15T18:29:02.264Z,99995.81
2023-04-15T18:32:05.230Z,99987.59
2023-04-15T18:35:08.996Z,99997.31
2023-04-15T18:38:11.887Z,99998.97
2023-04-15T18:41:15.232Z,100000.28
2023-04-15T18:44:18.183Z,100017.34
2023-04-15T18:47:21.157Z,100015.19
2023-04-15T18:50:24.113Z,100019.94
2023-04-15T18:53:28.081Z,100017.59
2023-04-15T18:56:31.702Z,100031.44
2023-04-15T18:59:34.613Z,100037.47
2023-04-15T19:02:38.219Z,100044.69
2023-04-15T19:05:41.422Z,100045.59
2023-04-15T19:08:44.721Z,100043.44
2023-04-15T19:11:47.776Z,100045.50
2023-04-15T19:14:53.502Z,100043.19
2023-04-15T19:17:56.399Z,100052.84
2023-04-15T19:20:59.205Z,100049.03
2023-04-15T19:24:02.109Z,100047.72
2023-04-15T19:27:05.128Z,100061.56
2023-04-15T19:30:08.939Z,100050.50
2023-04-15T19:33:12.492Z,100057.75
2023-04-15T19:36:15.727Z,100059.59
2023-04-15T19:39:18.907Z,100065.84
2023-04-15T19:42:21.815Z,100071.13
2023-04-15T19:45:26.243Z,100070.16
2023-04-15T19:48:29.013Z,100062.59
2023-04-15T19:51:32.306Z,100072.22
2023-04-15T19:54:35.208Z,100077.66
2023-04-15T19:57:38.511Z,100075.13
2023-04-15T20:00:41.320Z,100079.63
2023-04-15T20:03:44.833Z,100088.47
2023-04-15T20:06:47.810Z,100090.75
2023-04-15T20:09:52.290Z,100086.91
2023-04-15T20:12:55.465Z,100099.88
2023-04-15T20:15:58.417Z,100094.81
2023-04-15T20:19:07.443Z,100099.84
2023-04-15T20:22:10.519Z,100105.03
2023-04-15T20:25:13.545Z,100108.47
2023-04-15T20:28:20.023Z,100112.81
2023-04-15T20:31:22.890Z,100117.03
2023-04-15T20:34:26.478Z,100113.38
2023-04-15T20:37:33.014Z,100117.50
2023-04-15T20:40:36.699Z,100123.13
2023-04-15T20:43:39.141Z,100125.06
2023-04-15T20:46:42.660Z,100132.50
2023-04-15T20:49:47.366Z,100136.31
2023-04-15T20:52:50.426Z,100142.53
2023-04-15T20:55:53.206Z,100147.41
2023-04-15T20:58:56.295Z,100140.53
2023-04-15T21:01:59.104Z,100150.06
2023-04-15T21:05:02.020Z,100147.97
2023-04-15T21:08:05.084Z,100149.84
2023-04-15T21:11:07.674Z,100153.56
2023-04-15T21:14:10.510Z,100158.28
2023-04-15T21:17:13.391Z,100156.69
2023-04-15T21:20:16.264Z,100153.84
2023-04-15T21:23:19.062Z,100167.81
2023-04-15T21:26:21.873Z,100168.59
2023-04-15T21:29:24.713Z,100168.53
2023-04-15T21:32:27.462Z,100176.28
2023-04-15T21:35:30.841Z,100176.84
2023-04-15T21:38:34.120Z,100179.63
2023-04-15T21:41:39.582Z,100178.34
2023-04-15T21:44:42.374Z,100178.94
2023-04-15T21:48:00.832Z,100181.78
2023-04-15T21:51:08.414Z,100188.94
2023-04-15T21:54:11.182Z,100181.19
2023-04-15T21:57:14.000Z,100190.38
2023-04-15T22:00:16.755Z,100185.16
2023-04-15T22:03:19.765Z,100187.44
2023-04-15T22:06:22.716Z,100183.38
2023-04-15T22:09:25.998Z,100182.88
2023-04-15T22:12:28.693Z,100183.47
2023-04-15T22:15:31.314Z,100184.03
2023-04-15T22:18:33.908Z,100187.19
2023-04-15T22:21:36.620Z,100185.38
2023-04-15T22:24:40.751Z,100187.19
2023-04-15T22:27:43.811Z,100185.81
2023-04-15T22:30:46.985Z,100196.78
2023-04-15T22:33:49.776Z,100197.41
2023-04-15T22:36:53.199Z,100198.78
2023-04-15T22:39:55.876Z,100202.28
2023-04-15T22:42:58.735Z,100202.84
2023-04-15T22:46:01.542Z,100200.59
2023-04-15T22:49:09.629Z,100212.31
2023-04-15T22:52:23.351Z,100210.50
2023-04-15T22:55:30.232Z,100222.69
2023-04-15T22:58:32.989Z,100226.19
2023-04-15T23:01:35.873Z,100221.13
2023-04-15T23:04:38.680Z,100214.75
2023-04-15T23:07:41.563Z,100216.81
2023-04-15T23:10:44.699Z,100224.72
2023-04-15T23:13:47.581Z,100218.69
2023-04-15T23:16:50.494Z,100219.97
2023-04-15T23:19:53.389Z,100221.84
2023-04-15T23:22:56.289Z,100227.34
2023-04-15T23:25:59.508Z,100231.88
2023-04-15T23:29:02.269Z,100223.63
2023-04-15T23:32:06.288Z,100224.69
2023-04-15T23:35:09.276Z,100224.53
2023-04-15T23:38:12.357Z,100218.03
2023-04-15T23:41:15.076Z,100216.53
2023-04-15T23:44:18.248Z,100213.44
2023-04-15T23:47:21.160Z,100214.69
2023-04-15T23:50:24.442Z,100205.09
2023-04-15T23:53:27.702Z,100212.59
2023-04-15T23:56:30.486Z,100206.44
2023-04-15T23:59:33.141Z,100202.72
